createdAt,value
2017-11-16T00:00:56.452Z,6.70
2017-11-16T00:03:23.931Z,6.60
2017-11-16T00:05:51.416Z,6.50
2017-11-16T00:08:18.907Z,6.40
2017-11-16T00:10:47.361Z,6.40
2017-11-16T00:13:14.851Z,6.40
2017-11-16T00:15:42.332Z,6.50
2017-11-16T00:18:10.224Z,6.60
2017-11-16T00:20:37.695Z,6.60
2017-11-16T00:23:05.172Z,6.60
2017-11-16T00:25:32.673Z,6.70
2017-11-16T00:28:00.551Z,6.70
2017-11-16T00:30:28.273Z,6.70
2017-11-16T00:32:55.755Z,6.60
2017-11-16T00:35:23.653Z,6.60
2017-11-16T00:37:51.145Z,6.60
2017-11-16T00:40:18.620Z,6.60
2017-11-16T00:42:46.112Z,6.50
2017-11-16T00:45:14.002Z,6.40
2017-11-16T00:47:41.500Z,6.50
2017-11-16T00:50:08.975Z,6.40
2017-11-16T00:52:36.864Z,6.30
2017-11-16T00:55:05.703Z,6.30
2017-11-16T00:57:33.180Z,6.30
2017-11-16T01:00:00.696Z,6.30
2017-11-16T01:02:28.172Z,6.20
2017-11-16T01:04:55.665Z,6.20
2017-11-16T01:07:27.233Z,6.30
2017-11-16T01:09:54.738Z,6.30
2017-11-16T01:12:22.212Z,6.30
2017-11-16T01:14:49.703Z,6.30
2017-11-16T01:17:17.572Z,6.20
2017-11-16T01:19:45.476Z,6.20
2017-11-16T01:22:12.949Z,6.20
2017-11-16T01:24:40.436Z,6.10
2017-11-16T01:27:09.900Z,6.20
2017-11-16T01:29:37.379Z,6.20
2017-11-16T01:32:04.856Z,6.20
2017-11-16T01:34:32.777Z,6.30
2017-11-16T01:37:00.247Z,6.30
2017-11-16T01:39:27.747Z,6.20
2017-11-16T01:41:55.625Z,6.20
2017-11-16T01:44:23.125Z,6.20
2017-11-16T01:46:50.623Z,6.30
2017-11-16T01:49:18.100Z,6.30
2017-11-16T01:51:45.994Z,6.30
2017-11-16T01:54:13.500Z,6.30
2017-11-16T01:56:41.033Z,6.30
2017-11-16T01:59:08.523Z,6.30
2017-11-16T02:01:36.021Z,6.10
2017-11-16T02:04:03.516Z,6.10
2017-11-16T02:06:31.002Z,6.00
2017-11-16T02:08:58.892Z,6.10
2017-11-16T02:11:26.369Z,6.10
2017-11-16T02:13:53.843Z,6.20
2017-11-16T02:16:21.676Z,6.10
2017-11-16T02:18:49.153Z,6.10
2017-11-16T02:21:16.650Z,6.10
2017-11-16T02:23:44.135Z,6.10
2017-11-16T02:26:12.041Z,6.20
2017-11-16T02:28:39.520Z,6.20
2017-11-16T02:31:07.013Z,6.30
2017-11-16T02:33:34.899Z,6.20
2017-11-16T02:36:02.417Z,6.20
2017-11-16T02:38:29.958Z,6.00
2017-11-16T02:40:57.431Z,6.20
2017-11-16T02:43:24.933Z,6.20
2017-11-16T02:45:52.412Z,6.20
2017-11-16T02:48:19.889Z,6.20
2017-11-16T02:50:47.396Z,6.00
2017-11-16T02:53:15.845Z,5.90
2017-11-16T02:55:43.337Z,6.00
2017-11-16T02:58:10.844Z,6.10
2017-11-16T03:00:38.337Z,6.10
2017-11-16T03:03:06.203Z,6.10
2017-11-16T03:05:34.086Z,6.00
2017-11-16T03:08:01.562Z,6.00
2017-11-16T03:10:29.988Z,6.00
2017-11-16T03:12:57.517Z,6.10
2017-11-16T03:15:24.995Z,6.10
2017-11-16T03:17:52.493Z,6.00
2017-11-16T03:20:20.392Z,5.70
2017-11-16T03:22:47.869Z,5.70
2017-11-16T03:25:15.370Z,5.70
2017-11-16T03:27:43.255Z,5.80
2017-11-16T03:30:10.750Z,5.80
2017-11-16T03:32:38.266Z,5.80
2017-11-16T03:35:06.668Z,5.70
2017-11-16T03:37:34.146Z,5.70
2017-11-16T03:40:01.663Z,5.80
2017-11-16T03:42:30.087Z,5.70
2017-11-16T03:44:57.580Z,5.50
2017-11-16T03:47:25.466Z,5.60
2017-11-16T03:49:52.948Z,5.60
2017-11-16T03:52:20.433Z,5.60
2017-11-16T03:54:47.931Z,5.50
2017-11-16T03:57:15.808Z,5.50
2017-11-16T03:59:43.336Z,5.50
2017-11-16T04:02:12.765Z,5.40
2017-11-16T04:04:41.160Z,5.30
2017-11-16T04:07:08.637Z,5.40
2017-11-16T04:09:36.137Z,5.40
2017-11-16T04:12:04.024Z,5.50
2017-11-16T04:14:31.508Z,5.50
2017-11-16T04:16:59.000Z,5.60
2017-11-16T04:19:27.412Z,5.80
2017-11-16T04:21:55.273Z,5.80
2017-11-16T04:24:23.165Z,5.80
2017-11-16T04:26:51.607Z,5.80
2017-11-16T04:29:19.111Z,5.70
2017-11-16T04:31:46.598Z,5.60
2017-11-16T04:34:14.087Z,5.60
2017-11-16T04:36:41.961Z,5.60
2017-11-16T04:39:09.823Z,5.60
2017-11-16T04:41:37.717Z,5.60
2017-11-16T04:44:06.101Z,5.60
2017-11-16T04:46:33.619Z,5.60
2017-11-16T04:49:02.104Z,5.60
2017-11-16T04:51:29.591Z,5.60
2017-11-16T04:53:57.097Z,5.60
2017-11-16T04:56:24.588Z,5.50
2017-11-16T04:58:53.475Z,5.50
2017-11-16T05:01:21.363Z,5.40
2017-11-16T05:03:50.812Z,5.50
2017-11-16T05:06:18.335Z,5.50
2017-11-16T05:08:45.833Z,5.50
2017-11-16T05:11:13.331Z,5.50
2017-11-16T05:13:42.779Z,5.50
2017-11-16T05:16:10.281Z,5.50
2017-11-16T05:18:38.172Z,5.60
2017-11-16T05:21:05.669Z,5.60
2017-11-16T05:23:33.174Z,5.70
2017-11-16T05:26:01.056Z,5.80
2017-11-16T05:28:28.564Z,5.70
2017-11-16T05:30:56.051Z,5.80
2017-11-16T05:33:23.940Z,5.70
2017-11-16T05:35:51.436Z,5.80
2017-11-16T05:38:20.844Z,5.80
2017-11-16T05:40:48.350Z,5.70
2017-11-16T05:43:15.836Z,5.70
2017-11-16T05:45:43.340Z,5.60
2017-11-16T05:48:10.829Z,5.50
2017-11-16T05:50:38.328Z,5.60
2017-11-16T05:53:05.820Z,5.70
2017-11-16T05:55:33.730Z,5.50
2017-11-16T05:58:01.220Z,5.50
2017-11-16T06:00:28.692Z,5.50
2017-11-16T06:02:56.202Z,5.40
2017-11-16T06:05:24.621Z,5.30
2017-11-16T06:07:52.119Z,5.30
2017-11-16T06:10:19.604Z,5.30
2017-11-16T06:12:47.091Z,5.30
2017-11-16T06:15:15.516Z,5.40
2017-11-16T06:17:43.014Z,5.40
2017-11-16T06:20:10.519Z,5.40
2017-11-16T06:22:38.391Z,5.70
2017-11-16T06:25:06.288Z,5.70
2017-11-16T06:27:33.787Z,5.70
2017-11-16T06:30:01.289Z,5.70
2017-11-16T06:32:32.592Z,5.80
2017-11-16T06:35:00.067Z,5.70
2017-11-16T06:37:27.972Z,5.60
2017-11-16T06:39:55.460Z,5.60
2017-11-16T06:42:22.951Z,5.50
2017-11-16T06:44:50.836Z,5.40
2017-11-16T06:47:18.339Z,5.50
2017-11-16T06:49:45.847Z,5.40
2017-11-16T06:52:13.734Z,5.70
2017-11-16T06:54:41.239Z,5.70
2017-11-16T06:57:08.749Z,5.50
2017-11-16T06:59:36.241Z,5.50
2017-11-16T07:02:03.736Z,5.70
2017-11-16T07:04:31.645Z,5.80
2017-11-16T07:06:59.144Z,5.80
2017-11-16T07:09:26.621Z,5.70
2017-11-16T07:11:54.513Z,5.70
2017-11-16T07:14:22.014Z,5.70
2017-11-16T07:16:49.508Z,5.80
2017-11-16T07:19:17.385Z,5.80
2017-11-16T07:21:45.283Z,5.80
2017-11-16T07:24:12.782Z,5.80
2017-11-16T07:26:40.669Z,5.70
2017-11-16T07:29:08.576Z,5.50
2017-11-16T07:31:36.060Z,5.50
2017-11-16T07:34:04.525Z,5.50
2017-11-16T07:36:32.024Z,5.50
2017-11-16T07:39:01.838Z,5.70
2017-11-16T07:41:29.737Z,5.60
2017-11-16T07:43:57.252Z,5.60
2017-11-16T07:46:24.736Z,5.50
2017-11-16T07:48:52.621Z,5.20
2017-11-16T07:51:20.125Z,5.20
2017-11-16T07:53:47.607Z,5.20
2017-11-16T07:56:16.435Z,5.10
2017-11-16T07:58:43.949Z,5.10
2017-11-16T08:01:19.738Z,5.10
2017-11-16T08:03:47.248Z,5.10
2017-11-16T08:06:14.744Z,5.30
2017-11-16T08:08:42.239Z,5.50
2017-11-16T08:11:09.736Z,5.40
2017-11-16T08:13:37.621Z,5.20
2017-11-16T08:16:05.125Z,5.20
2017-11-16T08:18:32.640Z,5.20
2017-11-16T08:21:00.144Z,5.30
2017-11-16T08:23:27.632Z,5.40
2017-11-16T08:25:55.971Z,5.40
2017-11-16T08:28:23.467Z,5.40
2017-11-16T08:30:51.361Z,5.30
2017-11-16T08:33:18.855Z,5.30
2017-11-16T08:35:46.337Z,5.20
2017-11-16T08:38:13.830Z,5.10
2017-11-16T08:40:42.252Z,5.10
2017-11-16T08:43:09.743Z,4.90
2017-11-16T08:45:37.643Z,5.10
2017-11-16T08:48:05.119Z,5.10
2017-11-16T08:50:32.608Z,4.90
2017-11-16T08:53:00.096Z,4.70
2017-11-16T08:55:27.596Z,4.70
2017-11-16T08:57:55.076Z,4.80
2017-11-16T09:00:22.572Z,4.80
2017-11-16T09:02:50.456Z,5.00
2017-11-16T09:05:18.133Z,5.00
2017-11-16T09:07:45.639Z,5.20
2017-11-16T09:10:13.145Z,5.40
2017-11-16T09:12:40.640Z,5.40
2017-11-16T09:15:08.133Z,5.50
2017-11-16T09:17:36.021Z,5.50
2017-11-16T09:20:03.520Z,5.50
2017-11-16T09:22:31.455Z,5.40
2017-11-16T09:24:58.928Z,5.30
2017-11-16T09:27:26.422Z,5.20
2017-11-16T09:29:53.902Z,5.10
2017-11-16T09:32:21.417Z,5.00
2017-11-16T09:34:48.889Z,4.90
2017-11-16T09:37:18.342Z,4.90
2017-11-16T09:39:45.836Z,4.80
2017-11-16T09:42:13.351Z,4.90
2017-11-16T09:44:42.789Z,4.80
2017-11-16T09:47:10.268Z,4.90
2017-11-16T09:49:37.735Z,5.00
2017-11-16T09:52:05.224Z,5.10
2017-11-16T09:54:32.741Z,5.10
2017-11-16T09:57:00.253Z,5.10
2017-11-16T09:59:27.744Z,5.10
2017-11-16T10:01:55.239Z,5.10
2017-11-16T10:04:23.121Z,5.60
2017-11-16T10:06:50.619Z,5.60
2017-11-16T10:09:18.111Z,5.80
2017-11-16T10:11:45.613Z,5.80
2017-11-16T10:14:13.120Z,5.90
2017-11-16T10:16:40.645Z,5.70
2017-11-16T10:19:08.119Z,5.50
2017-11-16T10:21:35.608Z,5.40
2017-11-16T10:24:03.500Z,5.20
2017-11-16T10:26:32.996Z,5.20
2017-11-16T10:29:00.480Z,5.10
2017-11-16T10:31:27.960Z,5.10
2017-11-16T10:33:55.470Z,5.10
2017-11-16T10:36:22.988Z,5.00
2017-11-16T10:38:50.484Z,5.10
2017-11-16T10:41:18.376Z,5.50
2017-11-16T10:43:45.881Z,5.50
2017-11-16T10:46:13.794Z,5.40
2017-11-16T10:48:43.293Z,5.40
2017-11-16T10:51:10.828Z,5.30
2017-11-16T10:53:40.659Z,5.30
2017-11-16T10:56:08.161Z,5.30
2017-11-16T10:58:35.672Z,5.40
2017-11-16T11:01:03.176Z,5.40
2017-11-16T11:03:30.668Z,5.40
2017-11-16T11:05:58.586Z,5.30
2017-11-16T11:08:28.059Z,5.30
2017-11-16T11:10:56.458Z,5.20
2017-11-16T11:13:23.977Z,5.20
2017-11-16T11:15:51.884Z,5.40
2017-11-16T11:18:19.389Z,5.40
2017-11-16T11:20:46.892Z,5.40
2017-11-16T11:23:14.427Z,5.30
2017-11-16T11:25:42.312Z,5.40
2017-11-16T11:28:09.808Z,5.40
2017-11-16T11:30:39.278Z,5.50
2017-11-16T11:33:06.779Z,5.40
2017-11-16T11:35:34.274Z,5.40
2017-11-16T11:38:02.180Z,5.50
2017-11-16T11:40:31.648Z,5.50
2017-11-16T11:42:59.541Z,5.50
2017-11-16T11:45:27.028Z,5.60
2017-11-16T11:47:54.544Z,5.40
2017-11-16T11:50:22.049Z,5.30
2017-11-16T11:52:49.535Z,5.30
2017-11-16T11:55:17.122Z,5.20
2017-11-16T11:57:45.498Z,5.10
2017-11-16T12:00:12.991Z,5.10
2017-11-16T12:02:40.484Z,5.10
2017-11-16T12:05:08.929Z,5.10
2017-11-16T12:07:36.412Z,5.10
2017-11-16T12:10:03.912Z,5.00
2017-11-16T12:12:32.363Z,5.00
2017-11-16T12:14:59.855Z,5.00
2017-11-16T12:17:27.344Z,5.10
2017-11-16T12:19:54.904Z,5.20
2017-11-16T12:22:22.483Z,5.10
2017-11-16T12:24:51.026Z,5.00
2017-11-16T12:27:18.532Z,5.10
2017-11-16T12:29:46.019Z,5.00
2017-11-16T12:32:13.528Z,5.00
2017-11-16T12:34:41.017Z,5.00
2017-11-16T12:37:08.898Z,5.00
2017-11-16T12:39:36.779Z,5.00
2017-11-16T12:42:04.267Z,5.00
2017-11-16T12:44:31.791Z,5.00
2017-11-16T12:47:00.204Z,5.00
2017-11-16T12:49:27.686Z,5.00
2017-11-16T12:51:55.193Z,5.00
2017-11-16T12:54:22.672Z,5.00
2017-11-16T12:56:50.162Z,5.00
2017-11-16T12:59:18.417Z,5.00
2017-11-16T13:01:46.909Z,5.10
2017-11-16T13:04:14.396Z,5.00
2017-11-16T13:06:42.300Z,4.90
2017-11-16T13:09:09.800Z,4.90
2017-11-16T13:11:37.309Z,4.90
2017-11-16T13:14:04.925Z,4.90
2017-11-16T13:16:34.094Z,4.90
2017-11-16T13:19:01.580Z,4.90
2017-11-16T13:21:29.090Z,5.00
2017-11-16T13:23:56.572Z,5.00
2017-11-16T13:26:24.064Z,5.00
2017-11-16T13:28:51.540Z,5.00
2017-11-16T13:31:19.077Z,5.00
2017-11-16T13:33:46.560Z,5.00
2017-11-16T13:36:14.037Z,5.00
2017-11-16T13:38:42.448Z,4.90
2017-11-16T13:41:09.941Z,4.90
2017-11-16T13:43:37.842Z,5.10
2017-11-16T13:46:05.329Z,5.10
2017-11-16T13:48:32.832Z,4.90
2017-11-16T13:51:00.738Z,4.80
2017-11-16T13:53:28.260Z,4.80
2017-11-16T13:55:56.166Z,4.80
2017-11-16T13:58:23.648Z,4.80
2017-11-16T14:00:52.103Z,4.70
2017-11-16T14:03:19.621Z,4.60
2017-11-16T14:05:47.076Z,4.70
2017-11-16T14:08:14.964Z,4.50
2017-11-16T14:10:42.439Z,4.40
2017-11-16T14:13:11.878Z,4.40
2017-11-16T14:15:39.357Z,4.40
2017-11-16T14:18:07.232Z,4.30
2017-11-16T14:20:37.115Z,4.30
2017-11-16T14:23:04.595Z,4.40
2017-11-16T14:25:32.488Z,4.40
2017-11-16T14:27:59.992Z,4.30
2017-11-16T14:30:27.479Z,4.40
2017-11-16T14:32:56.988Z,4.30
2017-11-16T14:35:25.809Z,4.20
2017-11-16T14:37:53.328Z,4.20
2017-11-16T14:40:21.205Z,4.20
2017-11-16T14:42:49.100Z,4.10
2017-11-16T14:45:16.581Z,4.10
2017-11-16T14:47:44.064Z,4.10
2017-11-16T14:50:11.555Z,4.10
2017-11-16T14:52:39.028Z,4.30
2017-11-16T14:55:06.528Z,4.40
2017-11-16T14:57:34.004Z,4.50
2017-11-16T15:00:01.547Z,4.40
2017-11-16T15:02:29.039Z,4.30
2017-11-16T15:04:56.908Z,4.20
2017-11-16T15:07:24.815Z,4.20
2017-11-16T15:09:52.291Z,4.20
2017-11-16T15:12:20.556Z,4.20
2017-11-16T15:14:48.037Z,4.30
2017-11-16T15:17:15.517Z,4.20
2017-11-16T15:19:43.410Z,4.10
2017-11-16T15:22:10.889Z,4.10
2017-11-16T15:24:38.415Z,4.00
2017-11-16T15:27:06.867Z,3.90
2017-11-16T15:29:34.358Z,3.90
2017-11-16T15:32:01.869Z,3.90
2017-11-16T15:34:29.348Z,3.80
2017-11-16T15:36:57.612Z,3.90
2017-11-16T15:39:25.084Z,3.90
2017-11-16T15:41:52.967Z,3.90
2017-11-16T15:44:20.437Z,3.90
2017-11-16T15:46:48.860Z,3.90
2017-11-16T15:49:16.375Z,3.90
2017-11-16T15:51:43.849Z,3.90
2017-11-16T15:54:11.346Z,3.80
2017-11-16T15:56:38.822Z,4.00
2017-11-16T15:59:06.691Z,4.00
2017-11-16T16:01:34.609Z,3.90
2017-11-16T16:04:02.085Z,3.90
2017-11-16T16:06:29.584Z,3.90
2017-11-16T16:08:57.070Z,4.00
2017-11-16T16:11:24.565Z,4.00
2017-11-16T16:13:52.039Z,4.00
2017-11-16T16:16:19.976Z,3.90
2017-11-16T16:18:47.482Z,3.90
2017-11-16T16:21:15.354Z,4.10
2017-11-16T16:23:42.856Z,4.10
2017-11-16T16:26:10.346Z,4.00
2017-11-16T16:28:38.234Z,3.80
2017-11-16T16:31:05.736Z,3.80
2017-11-16T16:33:33.215Z,3.70
2017-11-16T16:36:02.672Z,3.70
2017-11-16T16:38:30.160Z,3.80
2017-11-16T16:40:57.692Z,3.80
2017-11-16T16:43:25.208Z,3.80
2017-11-16T16:45:52.695Z,3.80
2017-11-16T16:48:21.257Z,3.90
2017-11-16T16:50:49.151Z,3.90
2017-11-16T16:53:16.669Z,3.90
2017-11-16T16:55:44.596Z,3.90
2017-11-16T16:58:12.085Z,3.90
2017-11-16T17:00:39.597Z,3.80
2017-11-16T17:03:07.994Z,3.80
2017-11-16T17:05:35.531Z,3.70
2017-11-16T17:08:03.887Z,3.70
2017-11-16T17:10:31.764Z,3.80
2017-11-16T17:13:00.886Z,3.80
2017-11-16T17:15:28.457Z,3.80
2017-11-16T17:17:56.792Z,3.80
2017-11-16T17:20:24.687Z,3.80
2017-11-16T17:22:52.223Z,3.80
2017-11-16T17:25:19.719Z,3.70
2017-11-16T17:27:47.275Z,3.80
2017-11-16T17:30:14.754Z,3.70
2017-11-16T17:32:42.232Z,3.60
2017-11-16T17:35:09.741Z,3.60
2017-11-16T17:37:38.117Z,3.70
2017-11-16T17:40:05.636Z,3.80
2017-11-16T17:42:33.516Z,3.80
2017-11-16T17:45:01.020Z,3.80
2017-11-16T17:47:28.525Z,3.80
2017-11-16T17:49:56.439Z,3.60
2017-11-16T17:52:23.953Z,3.60
2017-11-16T17:54:51.877Z,3.60
2017-11-16T17:57:19.378Z,3.60
2017-11-16T17:59:47.281Z,3.50
2017-11-16T18:02:16.751Z,3.50
2017-11-16T18:04:52.734Z,3.50
2017-11-16T18:07:20.314Z,3.40
2017-11-16T18:09:47.829Z,3.40
2017-11-16T18:12:15.361Z,3.40
2017-11-16T18:14:42.856Z,3.40
2017-11-16T18:17:10.362Z,3.30
2017-11-16T18:19:37.856Z,3.30
2017-11-16T18:22:05.732Z,3.30
2017-11-16T18:24:33.229Z,3.30
2017-11-16T18:27:00.757Z,3.30
2017-11-16T18:29:29.188Z,3.20
2017-11-16T18:32:09.500Z,3.20
2017-11-16T18:34:37.020Z,3.30
2017-11-16T18:37:04.901Z,3.30
2017-11-16T18:39:32.816Z,3.30
2017-11-16T18:42:00.305Z,3.30
2017-11-16T18:44:27.839Z,3.40
2017-11-16T18:46:55.341Z,3.40
2017-11-16T18:49:23.256Z,3.30
2017-11-16T18:51:50.766Z,3.30
2017-11-16T18:54:18.644Z,3.30
2017-11-16T18:56:48.159Z,3.30
2017-11-16T18:59:15.714Z,3.30
2017-11-16T19:01:43.290Z,3.30
2017-11-16T19:04:10.804Z,3.30
2017-11-16T19:06:38.352Z,3.30
2017-11-16T19:09:06.854Z,3.20
2017-11-16T19:11:34.756Z,3.40
2017-11-16T19:14:02.283Z,3.40
2017-11-16T19:16:30.194Z,3.30
2017-11-16T19:18:59.681Z,3.30
2017-11-16T19:21:27.197Z,3.30
2017-11-16T19:23:54.697Z,3.20
2017-11-16T19:26:23.135Z,3.30
2017-11-16T19:28:50.642Z,3.20
2017-11-16T19:31:18.168Z,3.30
2017-11-16T19:33:46.061Z,3.30
2017-11-16T19:36:13.587Z,3.30
2017-11-16T19:38:41.483Z,3.40
2017-11-16T19:41:08.992Z,3.40
2017-11-16T19:43:36.513Z,3.40
2017-11-16T19:46:04.013Z,3.40
2017-11-16T19:48:31.571Z,3.30
2017-11-16T19:50:59.099Z,3.30
2017-11-16T19:53:27.459Z,3.30
2017-11-16T19:55:54.998Z,3.30
2017-11-16T19:58:22.552Z,3.20
2017-11-16T20:00:50.501Z,3.30
2017-11-16T20:03:18.039Z,3.30
2017-11-16T20:05:45.560Z,3.20
2017-11-16T20:08:13.075Z,3.20
2017-11-16T20:10:40.574Z,3.20
2017-11-16T20:13:08.121Z,3.30
2017-11-16T20:15:35.631Z,3.40
2017-11-16T20:18:03.140Z,3.40
2017-11-16T20:20:32.612Z,3.50
2017-11-16T20:23:00.108Z,3.40
2017-11-16T20:25:27.629Z,3.40
2017-11-16T20:27:55.157Z,3.50
2017-11-16T20:30:22.670Z,3.40
2017-11-16T20:32:50.573Z,3.30
2017-11-16T20:35:18.112Z,3.30
2017-11-16T20:38:03.312Z,3.30
2017-11-16T20:43:40.893Z,3.40
2017-11-16T20:46:25.095Z,3.40
2017-11-16T20:48:53.369Z,3.40
2017-11-16T20:51:40.578Z,3.40
2017-11-16T20:54:24.794Z,3.40
2017-11-16T20:56:53.269Z,3.30
2017-11-16T20:59:20.768Z,3.30
2017-11-16T21:01:48.295Z,3.30
2017-11-16T21:04:15.785Z,3.40
2017-11-16T21:06:43.319Z,3.40
2017-11-16T21:09:10.819Z,3.30
2017-11-16T21:11:40.333Z,3.40
2017-11-16T21:14:07.847Z,3.40
2017-11-16T21:16:35.354Z,3.40
2017-11-16T21:19:03.869Z,3.40
2017-11-16T21:21:32.371Z,3.40
2017-11-16T21:23:59.860Z,3.40
2017-11-16T21:26:27.358Z,3.40
2017-11-16T21:28:54.895Z,3.40
2017-11-16T21:31:22.401Z,3.40
2017-11-16T21:33:51.855Z,3.40
2017-11-16T21:36:20.747Z,3.40
2017-11-16T21:38:48.270Z,3.40
2017-11-16T21:41:15.828Z,3.30
2017-11-16T21:43:43.328Z,3.30
2017-11-16T21:46:11.259Z,3.40
2017-11-16T21:48:38.759Z,3.40
2017-11-16T21:51:06.718Z,3.40
2017-11-16T21:53:34.266Z,3.40
2017-11-16T21:56:01.799Z,3.40
2017-11-16T21:58:29.320Z,3.40
2017-11-16T22:00:57.252Z,3.50
2017-11-16T22:03:24.763Z,3.50
2017-11-16T22:05:52.285Z,3.50
2017-11-16T22:08:20.297Z,3.50
2017-11-16T22:10:47.958Z,3.50
2017-11-16T22:13:15.512Z,3.50
2017-11-16T22:15:43.676Z,3.50
2017-11-16T22:18:14.188Z,3.50
2017-11-16T22:20:43.001Z,3.50
2017-11-16T22:23:12.329Z,3.50
2017-11-16T22:25:41.304Z,3.50
2017-11-16T22:28:09.297Z,3.40
2017-11-16T22:30:40.051Z,3.40
2017-11-16T22:33:08.302Z,3.30
2017-11-16T22:35:35.944Z,3.30
2017-11-16T22:38:09.619Z,3.30
2017-11-16T22:40:37.243Z,3.30
2017-11-16T22:43:04.925Z,3.20
2017-11-16T22:45:35.645Z,3.30
2017-11-16T22:48:04.639Z,3.30
2017-11-16T22:50:33.163Z,3.30
2017-11-16T22:53:06.030Z,3.30
2017-11-16T22:55:34.042Z,3.30
2017-11-16T22:58:02.518Z,3.30
2017-11-16T23:00:30.500Z,3.30
2017-11-16T23:02:58.188Z,3.30
2017-11-16T23:05:26.688Z,3.30
2017-11-16T23:07:54.395Z,3.30
2017-11-16T23:10:23.045Z,3.30
2017-11-16T23:12:53.918Z,3.30
2017-11-16T23:15:22.104Z,3.30
2017-11-16T23:17:51.271Z,3.30
2017-11-16T23:20:19.314Z,3.30
2017-11-16T23:22:49.589Z,3.30
2017-11-16T23:25:21.162Z,3.30
2017-11-16T23:27:49.076Z,3.30
2017-11-16T23:30:18.114Z,3.30
2017-11-16T23:32:51.167Z,3.20
2017-11-16T23:35:20.219Z,3.30
2017-11-16T23:37:49.100Z,3.30
2017-11-16T23:40:17.808Z,3.30
2017-11-16T23:42:47.922Z,3.20
2017-11-16T23:45:15.649Z,3.20
2017-11-16T23:47:47.339Z,3.30
2017-11-16T23:50:19.108Z,3.30
2017-11-16T23:52:50.883Z,3.30
2017-11-16T23:55:20.983Z,3.30
2017-11-16T23:57:57.789Z,3.30
